Time;durP1;ratioP1;P1;durP2;ratioP2;P2;SDS_P1;SDS_P2;PMS_P1;PMS_P2;Temp;Humidity;BMP_temperature;BMP_pressure;BME280_temperature;BME280_humidity;BME280_pressure;Samples;Min_cycle;Max_cycle;Signal;HPM_P1;HPM_P2
2022/09/06 00:01:26;;;;;;;1.60;1.50;;;;;;;18.90;68.07;98347.34;6216700;23;20422;-89
2022/09/06 00:03:53;;;;;;;1.67;1.58;;;;;;;18.92;68.14;98360.38;6217273;23;20078;-90
2022/09/06 00:06:20;;;;;;;2.30;2.10;;;;;;;18.82;67.89;98350.41;6218080;23;20078;-89
2022/09/06 00:08:48;;;;;;;1.88;1.77;;;;;;;18.82;68.60;98347.75;6217773;23;20012;-86
2022/09/06 00:11:16;;;;;;;2.08;1.98;;;;;;;18.81;68.36;98338.16;6217459;23;20016;-88
2022/09/06 00:13:43;;;;;;;2.35;2.15;;;;;;;18.76;68.78;98334.63;6191423;23;20062;-88
2022/09/06 00:16:19;;;;;;;2.15;2.05;;;;;;;18.64;68.99;98324.09;6217227;23;20016;-86
2022/09/06 00:18:46;;;;;;;2.60;2.40;;;;;;;18.68;69.36;98349.16;6217597;23;20058;-88
2022/09/06 00:21:25;;;;;;;1.85;1.75;;;;;;;18.70;69.08;98347.06;6243909;23;20393;-88
2022/09/06 00:23:52;;;;;;;2.22;2.00;;;;;;;18.64;69.25;98340.84;6191573;23;20052;-86
2022/09/06 00:26:21;;;;;;;2.22;2.03;;;;;;;18.70;69.11;98347.84;6243224;22;20016;-86
2022/09/06 00:28:48;;;;;;;3.20;2.50;;;;;;;18.65;69.47;98346.94;6244117;23;20016;-88
2022/09/06 00:31:22;;;;;;;2.10;2.00;;;;;;;18.63;69.35;98349.06;6217172;23;20442;-89
2022/09/06 00:33:50;;;;;;;2.22;2.10;;;;;;;18.60;69.89;98358.34;6192129;23;20377;-88
2022/09/06 00:36:18;;;;;;;2.45;2.25;;;;;;;18.51;69.64;98343.03;6212790;23;20016;-89
2022/09/06 00:39:04;;;;;;;2.20;2.00;;;;;;;18.57;69.98;98355.34;6220878;23;20483;-87
2022/09/06 00:41:42;;;;;;;2.10;1.90;;;;;;;18.49;70.16;98353.94;6219827;23;20016;-88
2022/09/06 00:44:08;;;;;;;2.50;2.30;;;;;;;18.53;70.31;98356.88;6216714;23;20047;-88
2022/09/06 00:46:41;;;;;;;2.15;2.00;;;;;;;18.45;70.29;98353.59;6242832;23;20059;-89
2022/09/06 00:49:22;;;;;;;2.53;2.33;;;;;;;18.40;70.15;98356.19;6244308;23;20047;-89
2022/09/06 00:51:54;;;;;;;2.03;1.88;;;;;;;18.46;70.44;98351.75;6243653;23;20016;-87
2022/09/06 00:54:21;;;;;;;3.15;2.20;;;;;;;18.46;70.06;98355.19;6215831;23;20315;-85
2022/09/06 00:56:49;;;;;;;2.88;2.58;;;;;;;18.41;70.71;98349.84;6243353;23;20024;-87
2022/09/06 00:59:16;;;;;;;2.22;2.03;;;;;;;18.49;70.63;98350.47;6244233;23;20066;-86
2022/09/06 01:01:44;;;;;;;3.28;2.47;;;;;;;18.43;70.52;98357.56;6243015;23;20082;-90
2022/09/06 01:04:12;;;;;;;2.90;2.70;;;;;;;18.40;70.53;98356.19;6191686;23;20031;-87
2022/09/06 01:07:08;;;;;;;2.58;2.22;;;;;;;18.36;70.86;98352.41;6192063;23;20020;-88
2022/09/06 01:10:13;;;;;;;1.95;1.75;;;;;;;18.46;71.10;98357.06;6242604;23;20446;-88
2022/09/06 01:12:51;;;;;;;1.92;1.83;;;;;;;18.43;70.45;98358.34;6243399;23;20051;-87
2022/09/06 01:15:34;;;;;;;2.00;1.90;;;;;;;18.42;70.78;98351.44;6243958;23;20016;-88
2022/09/06 01:18:31;;;;;;;2.22;2.05;;;;;;;18.39;70.65;98353.78;6243049;23;20024;-88
2022/09/06 01:21:36;;;;;;;1.77;1.67;;;;;;;18.41;70.88;98375.56;6243686;23;20441;-87
2022/09/06 01:24:15;;;;;;;2.30;2.10;;;;;;;18.37;70.95;98364.63;6208925;23;20023;-88
2022/09/06 01:27:11;;;;;;;2.00;1.90;;;;;;;18.36;70.93;98367.53;6216654;23;20016;-89
2022/09/06 01:29:58;;;;;;;2.40;2.20;;;;;;;18.31;71.16;98355.00;6216446;23;20016;-87
2022/09/06 01:32:27;;;;;;;3.20;2.80;;;;;;;18.29;70.63;98357.09;6242809;22;20016;-88
2022/09/06 01:35:35;;;;;;;2.40;2.20;;;;;;;18.23;70.74;98344.75;6215731;23;20066;-87
2022/09/06 01:38:03;;;;;;;2.45;2.25;;;;;;;18.26;71.37;98357.56;6239387;23;20012;-88
2022/09/06 01:40:35;;;;;;;2.70;2.50;;;;;;;18.14;71.49;98355.00;6217865;23;20062;-89
2022/09/06 01:43:11;;;;;;;2.42;2.22;;;;;;;18.13;71.64;98355.25;6216928;23;20020;-89
2022/09/06 01:45:59;;;;;;;2.60;2.40;;;;;;;18.10;71.33;98355.72;6243452;23;20023;-84
2022/09/06 01:48:41;;;;;;;2.75;2.50;;;;;;;18.11;71.58;98363.47;6191567;23;20458;-87
2022/09/06 01:51:33;;;;;;;3.20;2.90;;;;;;;18.08;71.61;98371.09;6216923;23;20066;-86
2022/09/06 01:54:15;;;;;;;3.60;3.10;;;;;;;18.05;71.74;98367.06;6217091;23;20020;-87
2022/09/06 01:57:10;;;;;;;2.80;2.60;;;;;;;18.02;71.63;98367.53;6191004;23;20016;-87
2022/09/06 01:59:37;;;;;;;2.85;2.65;;;;;;;18.02;72.34;98359.59;6216307;23;20434;-86
2022/09/06 02:02:14;;;;;;;2.30;2.17;;;;;;;18.04;72.33;98364.63;6242899;23;20385;-86
2022/09/06 02:04:57;;;;;;;3.40;3.10;;;;;;;18.02;72.34;98366.75;6242728;23;20472;-89
2022/09/06 02:07:28;;;;;;;3.50;3.20;;;;;;;17.91;72.40;98360.47;6242761;23;20063;-88
2022/09/06 02:10:15;;;;;;;2.95;2.75;;;;;;;17.99;72.70;98368.00;6243538;23;20042;-88
2022/09/06 02:12:48;;;;;;;2.50;2.30;;;;;;;18.02;72.65;98367.53;6216356;23;20019;-90
2022/09/06 02:15:27;;;;;;;2.60;2.40;;;;;;;17.97;72.22;98356.03;6243248;23;20016;-88
2022/09/06 02:18:04;;;;;;;2.65;2.45;;;;;;;17.96;72.88;98354.44;6243299;23;20016;-87
2022/09/06 02:20:40;;;;;;;2.40;2.20;;;;;;;17.98;72.69;98361.09;6216466;23;20012;-86
2022/09/06 02:23:09;;;;;;;3.08;2.70;;;;;;;17.89;72.89;98342.13;6191927;23;20027;-86
2022/09/06 02:25:51;;;;;;;2.97;2.78;;;;;;;17.92;72.95;98349.59;6191649;23;20020;-90
2022/09/06 02:28:19;;;;;;;3.50;3.30;;;;;;;17.83;73.24;98343.09;6216351;23;20082;-87
2022/09/06 02:30:52;;;;;;;2.63;2.42;;;;;;;17.87;73.34;98338.94;6242270;23;20070;-85
2022/09/06 02:33:23;;;;;;;3.90;3.00;;;;;;;17.91;73.10;98340.03;6216665;23;20047;-86
2022/09/06 02:35:53;;;;;;;2.90;2.70;;;;;;;17.95;73.11;98339.56;6215724;23;20059;-87
2022/09/06 02:38:38;;;;;;;3.20;3.00;;;;;;;17.97;73.41;98350.72;6242393;23;20046;-88
2022/09/06 02:41:06;;;;;;;2.70;2.50;;;;;;;17.97;73.37;98338.25;6216465;23;20016;-90
2022/09/06 02:43:33;;;;;;;2.88;2.67;;;;;;;17.96;73.24;98341.16;6190867;23;20024;-88
2022/09/06 02:46:00;;;;;;;2.47;2.28;;;;;;;17.95;73.32;98332.41;6217242;23;20016;-87
2022/09/06 02:48:27;;;;;;;2.40;2.20;;;;;;;17.98;73.06;98328.44;6192915;23;20012;-89
2022/09/06 02:50:54;;;;;;;3.50;3.20;;;;;;;17.87;73.07;98330.13;6244663;23;20695;-89
2022/09/06 02:53:21;;;;;;;3.25;2.95;;;;;;;17.86;73.17;98334.63;6245453;23;20016;-89
2022/09/06 02:55:48;;;;;;;3.42;3.13;;;;;;;17.82;73.33;98328.22;6245527;23;20016;-89
2022/09/06 02:58:15;;;;;;;2.60;2.40;;;;;;;17.91;73.64;98339.22;6217904;23;20495;-86
2022/09/06 03:00:42;;;;;;;2.33;2.13;;;;;;;17.84;73.89;98339.38;6218128;23;20016;-90
2022/09/06 03:03:09;;;;;;;2.50;2.30;;;;;;;17.90;73.54;98335.78;6245419;23;20030;-86
2022/09/06 03:05:36;;;;;;;3.15;2.95;;;;;;;17.80;73.48;98329.50;6244814;23;20019;-89
2022/09/06 03:08:03;;;;;;;2.63;2.42;;;;;;;17.78;73.56;98335.03;6219149;23;20051;-90
2022/09/06 03:10:29;;;;;;;3.53;3.22;;;;;;;17.79;73.65;98334.00;6218095;23;20020;-85
2022/09/06 03:12:57;;;;;;;3.38;3.08;;;;;;;17.70;73.53;98327.47;6244764;23;20016;-86
2022/09/06 03:15:24;;;;;;;2.95;2.75;;;;;;;17.69;73.38;98330.34;6193049;23;20024;-88
2022/09/06 03:17:50;;;;;;;3.60;3.30;;;;;;;17.69;73.38;98336.44;6217884;23;20039;-89
2022/09/06 03:20:17;;;;;;;3.00;2.80;;;;;;;17.60;73.71;98329.94;6192739;23;20442;-89
2022/09/06 03:22:44;;;;;;;3.88;3.58;;;;;;;17.51;73.67;98331.34;6218662;23;20020;-87
2022/09/06 03:25:10;;;;;;;4.05;3.75;;;;;;;17.38;74.79;98343.84;6230054;22;20070;-89
2022/09/06 03:27:37;;;;;;;3.72;3.42;;;;;;;17.34;74.91;98340.09;6248899;22;20066;-88
2022/09/06 03:30:05;;;;;;;4.72;4.32;;;;;;;17.22;75.38;98331.38;6222425;22;20039;-89
2022/09/06 03:32:34;;;;;;;4.63;4.22;;;;;;;17.16;75.16;98337.63;6223306;22;20015;-89
2022/09/06 03:35:01;;;;;;;4.03;3.72;;;;;;;17.25;75.38;98335.38;6274762;22;20069;-87
2022/09/06 03:37:28;;;;;;;3.70;3.40;;;;;;;17.28;75.10;98335.72;6245757;22;20023;-89
2022/09/06 03:39:55;;;;;;;3.30;3.00;;;;;;;17.25;75.00;98330.91;6248441;22;20058;-88
2022/09/06 03:42:24;;;;;;;3.67;3.38;;;;;;;17.26;75.08;98329.84;6275485;22;20023;-89
2022/09/06 03:44:52;;;;;;;4.07;3.78;;;;;;;17.19;75.52;98331.03;6225108;22;20512;-91
2022/09/06 03:47:19;;;;;;;4.22;3.83;;;;;;;17.15;75.60;98330.69;6248487;22;20019;-91
2022/09/06 03:49:46;;;;;;;4.57;4.18;;;;;;;17.10;76.18;98327.97;6275046;22;20008;-88
2022/09/06 03:52:14;;;;;;;3.50;3.20;;;;;;;17.11;75.87;98311.03;6248250;22;20372;-88
2022/09/06 03:54:40;;;;;;;3.50;3.20;;;;;;;17.20;76.13;98314.88;6222668;22;20016;-88
2022/09/06 03:57:08;;;;;;;4.10;3.80;;;;;;;17.21;75.83;98316.50;6247437;22;20342;-88
2022/09/06 03:59:35;;;;;;;3.65;3.00;;;;;;;17.23;75.98;98327.69;6274429;22;20061;-87
2022/09/06 04:02:02;;;;;;;3.25;3.05;;;;;;;17.23;75.74;98326.88;6247560;22;20030;-88
2022/09/06 04:04:29;;;;;;;3.00;2.80;;;;;;;17.30;75.60;98317.75;6221506;22;20023;-90
2022/09/06 04:06:56;;;;;;;3.20;3.00;;;;;;;17.27;75.69;98312.94;6246623;22;20020;-88
2022/09/06 04:09:23;;;;;;;2.70;2.50;;;;;;;17.37;76.05;98313.09;6273877;22;20325;-88
2022/09/06 04:11:49;;;;;;;3.17;2.88;;;;;;;17.34;75.65;98312.78;6246151;22;20027;-89
2022/09/06 04:14:16;;;;;;;4.85;2.88;;;;;;;17.38;75.43;98327.16;6274582;22;20020;-88
2022/09/06 04:16:43;;;;;;;3.08;2.88;;;;;;;17.37;75.67;98323.69;6273364;22;20503;-88
2022/09/06 04:19:10;;;;;;;3.20;3.00;;;;;;;17.37;75.65;98313.09;6221907;22;20020;-87
2022/09/06 04:21:37;;;;;;;3.63;3.33;;;;;;;17.39;76.14;98304.88;6274003;22;20030;-87
2022/09/06 04:24:04;;;;;;;4.10;3.80;;;;;;;17.40;76.17;98314.47;6248142;22;20437;-87
2022/09/06 04:26:31;;;;;;;4.28;3.97;;;;;;;17.38;75.98;98306.75;6242150;23;20702;-89
2022/09/06 04:28:57;;;;;;;4.20;3.80;;;;;;;17.37;75.90;98299.84;6216897;23;20012;-88
2022/09/06 04:31:25;;;;;;;4.65;4.28;;;;;;;17.28;76.35;98295.97;6242576;23;20016;-89
2022/09/06 04:33:52;;;;;;;4.47;4.07;;;;;;;17.39;76.29;98305.72;6217684;23;20063;-90
2022/09/06 04:36:19;;;;;;;4.00;3.70;;;;;;;17.47;76.38;98311.69;6240093;23;20397;-85
2022/09/06 04:39:05;;;;;;;4.68;4.30;;;;;;;17.45;76.12;98308.44;6221284;23;20031;-88
2022/09/06 04:41:32;;;;;;;4.70;4.30;;;;;;;17.38;76.30;98303.28;6241941;23;20066;-89
2022/09/06 04:43:58;;;;;;;5.90;5.07;;;;;;;17.39;76.22;98304.88;6244176;22;20442;-87
2022/09/06 04:46:28;;;;;;;4.55;4.10;;;;;;;17.43;76.61;98310.53;6242312;23;20070;-89
2022/09/06 04:48:56;;;;;;;5.50;5.10;;;;;;;17.44;76.32;98306.84;6243513;22;20012;-87
2022/09/06 04:51:24;;;;;;;6.20;5.70;;;;;;;17.44;76.28;98318.25;6244687;22;20020;-88
2022/09/06 04:53:52;;;;;;;5.70;5.30;;;;;;;17.44;76.62;98320.09;6242248;23;20020;-87
2022/09/06 04:56:22;;;;;;;5.20;4.80;;;;;;;17.42;76.28;98319.53;6242872;23;20338;-90
2022/09/06 04:58:50;;;;;;;5.77;5.33;;;;;;;17.45;75.96;98321.69;6243297;22;20019;-88
2022/09/06 05:01:17;;;;;;;5.22;4.82;;;;;;;17.49;75.99;98317.53;6216122;23;20431;-86
2022/09/06 05:03:44;;;;;;;5.80;5.30;;;;;;;17.46;76.29;98310.88;6242573;22;20020;-88
2022/09/06 05:06:21;;;;;;;5.13;4.72;;;;;;;17.48;76.24;98292.06;6242492;22;20526;-89
2022/09/06 05:08:49;;;;;;;5.32;4.32;;;;;;;17.61;75.99;98295.22;6243582;22;20066;-89
2022/09/06 05:11:16;;;;;;;6.22;5.63;;;;;;;17.56;76.43;98294.31;6243240;22;20020;-87
2022/09/06 05:13:45;;;;;;;5.72;5.32;;;;;;;17.55;76.30;98308.63;6241645;23;20020;-88
2022/09/06 05:16:12;;;;;;;6.07;5.43;;;;;;;17.62;76.56;98319.88;6242234;23;20377;-89
2022/09/06 05:18:39;;;;;;;6.15;5.65;;;;;;;17.55;76.33;98304.13;6241331;23;20026;-91
2022/09/06 05:21:06;;;;;;;6.50;6.00;;;;;;;17.56;76.69;98315.53;6241699;23;20016;-89
2022/09/06 05:23:33;;;;;;;6.00;5.43;;;;;;;17.59;76.76;98313.22;6242294;23;20342;-88
2022/09/06 05:26:00;;;;;;;7.10;5.80;;;;;;;17.58;76.57;98313.47;6224401;23;20020;-89
2022/09/06 05:28:26;;;;;;;5.13;4.68;;;;;;;17.66;76.80;98321.81;6191209;23;20020;-88
2022/09/06 05:31:08;;;;;;;6.68;6.18;;;;;;;17.73;76.88;98337.59;6216305;23;20066;-89
2022/09/06 05:33:36;;;;;;;4.78;4.32;;;;;;;17.80;76.23;98343.56;6216341;23;20051;-88
2022/09/06 05:36:06;;;;;;;4.88;4.47;;;;;;;17.98;76.05;98350.47;6187260;23;20024;-90
2022/09/06 05:38:39;;;;;;;4.38;4.07;;;;;;;18.01;75.78;98342.06;6192819;23;20031;-89
2022/09/06 05:41:05;;;;;;;5.22;4.72;;;;;;;18.14;75.61;98344.38;6192146;23;20016;-86
2022/09/06 05:43:32;;;;;;;5.30;4.90;;;;;;;18.14;74.93;98339.06;6217634;23;20020;-88
2022/09/06 05:45:59;;;;;;;6.60;6.00;;;;;;;18.18;74.64;98348.16;6216452;23;20105;-89
2022/09/06 05:48:25;;;;;;;5.50;5.00;;;;;;;18.25;74.47;98355.97;6191882;23;20026;-89
2022/09/06 05:51:11;;;;;;;4.75;4.35;;;;;;;18.33;74.54;98346.78;6216253;23;20557;-90
2022/09/06 05:53:44;;;;;;;4.90;4.50;;;;;;;18.32;73.89;98345.97;6242713;23;20023;-89
2022/09/06 05:56:13;;;;;;;5.30;4.88;;;;;;;18.45;74.20;98355.44;6191369;23;20094;-87
2022/09/06 05:58:40;;;;;;;5.30;4.80;;;;;;;18.43;73.90;98358.34;6192748;23;20155;-89
2022/09/06 06:01:20;;;;;;;4.63;4.22;;;;;;;18.53;73.86;98352.41;6216437;23;20078;-91
2022/09/06 06:03:54;;;;;;;4.53;4.23;;;;;;;18.59;73.34;98339.97;6243465;23;20344;-88
2022/09/06 06:06:22;;;;;;;5.22;4.82;;;;;;;18.57;73.25;98331.44;6242601;23;20565;-88
2022/09/06 06:08:49;;;;;;;5.57;5.13;;;;;;;18.69;72.92;98342.78;6191772;23;20537;-89
2022/09/06 06:11:16;;;;;;;6.22;5.72;;;;;;;18.82;73.58;98349.59;6216676;23;20020;-87
2022/09/06 06:13:43;;;;;;;5.70;5.20;;;;;;;18.91;72.76;98348.94;6216405;23;20020;-89
2022/09/06 06:16:18;;;;;;;5.57;5.18;;;;;;;19.03;72.44;98345.34;6243672;23;20602;-87
2022/09/06 06:18:45;;;;;;;6.43;5.93;;;;;;;19.06;71.96;98344.84;6209140;22;20504;-86
2022/09/06 06:21:30;;;;;;;6.10;5.60;;;;;;;19.05;72.01;98335.25;6244039;23;20090;-85
2022/09/06 06:24:03;;;;;;;7.15;6.55;;;;;;;19.03;72.34;98326.75;6244651;23;20722;-85
2022/09/06 06:26:35;;;;;;;8.50;7.70;;;;;;;18.85;72.56;98328.66;6242770;22;20099;-84
2022/09/06 06:29:04;;;;;;;7.07;6.47;;;;;;;18.78;72.98;98327.25;6245542;23;20346;-88
2022/09/06 06:31:33;;;;;;;6.03;5.53;;;;;;;19.00;72.91;98328.03;6244423;23;20099;-87
2022/09/06 06:34:02;;;;;;;7.00;6.40;;;;;;;18.88;72.76;98314.88;6218332;23;20024;-86
2022/09/06 06:36:32;;;;;;;7.40;6.70;;;;;;;18.97;73.38;98320.56;6240282;23;20019;-91
2022/09/06 06:39:18;;;;;;;6.45;5.95;;;;;;;18.99;72.99;98329.88;6245649;23;20027;-90
2022/09/06 06:41:49;;;;;;;6.20;5.68;;;;;;;19.21;72.70;98321.91;6245037;23;20020;-87
2022/09/06 06:44:16;;;;;;;7.03;6.53;;;;;;;19.38;71.88;98327.13;6244785;23;20016;-89
2022/09/06 06:46:42;;;;;;;7.97;7.22;;;;;;;19.38;71.65;98318.34;6192500;23;20020;-89
2022/09/06 06:49:10;;;;;;;7.50;6.90;;;;;;;19.39;71.67;98311.97;6245031;23;20023;-88
2022/09/06 06:51:36;;;;;;;8.05;7.45;;;;;;;19.50;71.83;98325.13;6192766;23;20654;-90
2022/09/06 06:54:04;;;;;;;7.68;7.07;;;;;;;19.61;71.63;98323.41;6218053;23;20023;-87
2022/09/06 06:56:39;;;;;;;6.80;6.30;;;;;;;19.80;71.34;98323.03;6243807;23;20537;-88
2022/09/06 06:59:06;;;;;;;6.90;6.40;;;;;;;19.98;70.80;98328.75;6217493;23;20016;-86
2022/09/06 07:01:35;;;;;;;8.13;7.43;;;;;;;20.01;70.21;98314.94;6217162;23;20024;-87
2022/09/06 07:04:03;;;;;;;7.15;6.55;;;;;;;20.30;69.92;98311.94;6244864;23;20038;-87
2022/09/06 07:06:44;;;;;;;7.10;6.60;;;;;;;20.43;69.15;98316.81;6244131;23;20070;-90
2022/09/06 07:09:30;;;;;;;7.22;6.63;;;;;;;20.66;68.64;98317.50;6220930;23;20518;-85
2022/09/06 07:12:17;;;;;;;6.90;6.30;;;;;;;20.68;68.05;98315.34;6221201;23;20020;-88
2022/09/06 07:14:44;;;;;;;6.78;6.22;;;;;;;20.74;68.19;98311.66;6192868;23;20052;-85
2022/09/06 07:17:11;;;;;;;7.80;7.10;;;;;;;20.80;68.28;98310.63;6244260;23;20337;-88
2022/09/06 07:19:37;;;;;;;6.97;6.47;;;;;;;20.84;68.27;98314.38;6192078;23;20019;-85
2022/09/06 07:22:24;;;;;;;6.57;5.97;;;;;;;21.02;68.03;98324.56;6244056;23;20030;-90
2022/09/06 07:24:51;;;;;;;6.75;6.20;;;;;;;21.11;67.66;98311.50;6242105;22;20433;-88
2022/09/06 07:27:17;;;;;;;6.28;5.78;;;;;;;21.21;66.95;98310.75;6244383;23;20051;-89
2022/09/06 07:30:05;;;;;;;7.15;6.55;;;;;;;21.38;66.29;98335.38;6216324;23;20373;-84
2022/09/06 07:32:35;;;;;;;6.63;6.13;;;;;;;21.43;66.84;98330.06;6243537;23;20070;-88
2022/09/06 07:35:02;;;;;;;5.82;5.43;;;;;;;21.48;65.44;98316.72;6217552;23;20020;-86
2022/09/06 07:37:28;;;;;;;7.45;6.80;;;;;;;21.67;64.92;98332.22;6216435;23;20047;-86
2022/09/06 07:39:55;;;;;;;6.88;6.28;;;;;;;21.70;65.19;98324.47;6244381;23;20016;-87
2022/09/06 07:42:22;;;;;;;6.43;5.93;;;;;;;21.95;63.86;98333.56;6191714;23;20020;-89
2022/09/06 07:44:48;;;;;;;6.63;6.13;;;;;;;22.16;63.28;98327.97;6243758;23;20464;-87
2022/09/06 07:47:16;;;;;;;7.50;6.90;;;;;;;22.29;62.29;98331.16;6217929;23;20016;-85
2022/09/06 07:50:04;;;;;;;7.55;6.95;;;;;;;22.38;61.81;98333.03;6222251;23;20044;-84
2022/09/06 07:52:51;;;;;;;6.65;6.15;;;;;;;22.45;62.65;98324.72;6220871;23;20019;-86
2022/09/06 07:55:37;;;;;;;6.63;6.13;;;;;;;22.56;63.06;98326.31;6194648;23;20016;-85
2022/09/06 07:58:04;;;;;;;7.10;6.60;;;;;;;22.63;62.25;98326.00;6216448;23;20043;-89
2022/09/06 08:00:31;;;;;;;6.80;6.13;;;;;;;22.76;61.77;98329.97;6191493;23;20016;-88
2022/09/06 08:02:58;;;;;;;7.68;7.07;;;;;;;22.69;61.49;98336.41;6244925;23;20323;-90
2022/09/06 08:05:24;;;;;;;6.68;6.18;;;;;;;22.68;61.87;98340.16;6217241;23;20023;-85
2022/09/06 08:08:11;;;;;;;6.10;5.70;;;;;;;22.68;61.91;98340.16;6243027;23;20080;-86
2022/09/06 08:10:58;;;;;;;6.65;6.05;;;;;;;22.77;61.57;98336.91;6221695;23;20119;-86
2022/09/06 08:13:24;;;;;;;6.72;6.22;;;;;;;22.69;62.04;98336.41;6216549;23;20066;-85
2022/09/06 08:16:05;;;;;;;6.10;5.60;;;;;;;22.77;61.61;98332.38;6244123;23;20020;-86
2022/09/06 08:18:33;;;;;;;7.43;6.82;;;;;;;22.73;62.01;98339.34;6218370;23;20016;-86
2022/09/06 08:21:12;;;;;;;7.40;6.90;;;;;;;22.55;62.00;98335.41;6237808;23;20012;-87
2022/09/06 08:23:50;;;;;;;7.18;6.57;;;;;;;22.47;61.65;98327.13;6242526;23;20024;-86
2022/09/06 08:26:20;;;;;;;7.60;7.00;;;;;;;22.50;61.59;98324.72;6217009;22;20023;-85
2022/09/06 08:28:51;;;;;;;6.60;6.10;;;;;;;22.51;61.66;98326.31;6273329;22;20422;-87
2022/09/06 08:31:18;;;;;;;6.60;6.00;;;;;;;22.55;62.81;98324.69;6273350;22;20023;-86
2022/09/06 08:33:46;;;;;;;7.70;7.10;;;;;;;22.55;62.14;98327.38;6247781;22;20016;-85
2022/09/06 08:36:14;;;;;;;6.90;6.30;;;;;;;22.60;61.91;98332.69;6269611;22;20015;-86
2022/09/06 08:39:05;;;;;;;6.22;5.72;;;;;;;22.72;62.17;98335.06;6250216;22;20043;-87
2022/09/06 08:41:48;;;;;;;7.38;6.88;;;;;;;22.92;61.39;98334.22;6273582;22;20012;-89
2022/09/06 08:44:23;;;;;;;6.22;5.72;;;;;;;22.91;60.88;98330.75;6246714;22;20016;-86
2022/09/06 08:47:20;;;;;;;6.90;6.30;;;;;;;22.99;60.97;98340.09;6273669;22;20423;-85
2022/09/06 08:49:54;;;;;;;5.88;5.40;;;;;;;23.11;60.69;98337.09;6276969;22;20019;-86
2022/09/06 08:52:38;;;;;;;6.28;5.78;;;;;;;23.20;59.65;98335.41;6247722;22;20015;-87
2022/09/06 08:55:46;;;;;;;8.32;7.63;;;;;;;23.14;59.67;98337.31;6250757;22;20024;-89
2022/09/06 08:58:36;;;;;;;7.40;6.80;;;;;;;23.27;59.78;98329.75;6245623;22;20020;-87
2022/09/06 09:01:16;;;;;;;7.68;6.80;;;;;;;23.33;59.94;98329.47;6273633;22;20008;-89
2022/09/06 09:03:45;;;;;;;7.00;6.40;;;;;;;23.27;58.88;98319.06;6247099;22;20016;-86
2022/09/06 09:06:11;;;;;;;6.45;5.95;;;;;;;23.60;58.11;98330.91;6273844;22;20500;-84
2022/09/06 09:09:06;;;;;;;7.97;7.38;;;;;;;23.68;57.52;98336.50;6274983;22;20016;-88
2022/09/06 09:11:35;;;;;;;7.38;6.68;;;;;;;23.76;58.29;98340.47;6247561;22;20087;-85
2022/09/06 09:14:17;;;;;;;6.10;5.60;;;;;;;23.88;57.58;98327.53;6249427;22;20042;-88
2022/09/06 09:16:44;;;;;;;7.15;6.55;;;;;;;23.93;56.78;98334.69;6248315;22;20062;-84
2022/09/06 09:19:12;;;;;;;6.60;6.00;;;;;;;24.01;56.70;98318.03;6221406;22;20011;-86
2022/09/06 09:21:39;;;;;;;6.43;5.88;;;;;;;24.14;56.52;98325.41;6244010;22;20012;-88
2022/09/06 09:24:14;;;;;;;6.35;5.90;;;;;;;24.39;56.15;98327.06;6245834;22;20024;-88
2022/09/06 09:26:54;;;;;;;6.47;5.88;;;;;;;24.46;55.02;98316.00;6192058;23;20023;-89
2022/09/06 09:29:21;;;;;;;;;;;;;;;24.75;55.18;98308.72;6243154;23;20020;-89
2022/09/06 09:31:55;;;;;;;5.68;5.20;;;;;;;25.06;54.29;98294.94;6242289;23;19915;-88
2022/09/06 09:34:32;;;;;;;6.28;5.75;;;;;;;25.34;52.93;98302.06;6216227;23;20020;-86
2022/09/06 09:37:20;;;;;;;6.43;5.82;;;;;;;25.35;51.79;98287.53;6212453;23;20465;-85
2022/09/06 09:40:25;;;;;;;7.68;6.97;;;;;;;25.12;52.38;98283.03;6224259;23;20103;-85
2022/09/06 09:43:07;;;;;;;6.78;6.28;;;;;;;25.03;54.10;98280.19;6241398;23;20048;-87
2022/09/06 09:45:34;;;;;;;8.85;6.65;;;;;;;25.09;53.45;98289.00;6242806;23;20073;-87
2022/09/06 09:48:26;;;;;;;6.85;6.18;;;;;;;25.02;52.31;98285.84;6215752;23;20392;-86
2022/09/06 09:50:54;;;;;;;7.38;6.78;;;;;;;24.95;52.55;98288.06;6241684;23;20016;-88
2022/09/06 09:53:23;;;;;;;7.03;6.32;;;;;;;24.95;53.20;98272.81;6242425;23;20016;-89
2022/09/06 09:55:58;;;;;;;7.93;6.38;;;;;;;24.97;53.59;98264.47;6214386;23;20385;-86
2022/09/06 09:58:35;;;;;;;5.90;5.40;;;;;;;25.27;53.04;98274.00;6214920;23;20070;-87
2022/09/06 10:01:31;;;;;;;6.45;6.00;;;;;;;25.25;52.18;98276.97;6215958;23;20024;-86
2022/09/06 10:04:04;;;;;;;6.55;6.00;;;;;;;25.22;52.76;98272.16;6239242;23;20082;-87
2022/09/06 10:06:51;;;;;;;7.20;6.50;;;;;;;25.32;52.15;98265.88;6242420;23;20047;-85
2022/09/06 10:09:38;;;;;;;7.25;6.60;;;;;;;25.47;51.83;98267.50;6194887;23;20107;-90
2022/09/06 10:12:06;;;;;;;8.10;7.38;;;;;;;25.32;52.31;98268.56;6242803;23;20062;-86
2022/09/06 10:14:48;;;;;;;6.70;6.10;;;;;;;25.46;53.70;98265.91;6244098;23;20020;-87
2022/09/06 10:17:35;;;;;;;6.30;5.80;;;;;;;25.50;53.54;98266.94;6243512;23;20016;-86
2022/09/06 10:20:11;;;;;;;5.82;5.43;;;;;;;25.62;52.13;98259.22;6212819;23;20021;-84
2022/09/06 10:22:59;;;;;;;6.50;5.90;;;;;;;25.72;51.18;98261.72;6213173;23;20024;-88
2022/09/06 10:25:45;;;;;;;5.93;5.53;;;;;;;25.77;51.50;98267.03;6240453;22;20016;-85
2022/09/06 10:28:37;;;;;;;5.47;5.07;;;;;;;25.95;51.41;98264.59;6241481;23;20493;-87
2022/09/06 10:31:37;;;;;;;5.70;5.30;;;;;;;26.11;50.25;98268.63;6215243;23;20378;-84
2022/09/06 10:34:26;;;;;;;5.85;5.35;;;;;;;26.15;49.73;98272.31;6237199;23;20020;-85
2022/09/06 10:37:14;;;;;;;5.75;5.35;;;;;;;26.28;49.39;98276.91;6230750;23;20085;-86
2022/09/06 10:39:55;;;;;;;5.88;5.40;;;;;;;26.26;50.25;98273.69;6207507;23;20358;-87
2022/09/06 10:42:58;;;;;;;4.72;4.32;;;;;;;26.57;49.52;98263.19;6237314;23;20024;-86
2022/09/06 10:45:48;;;;;;;4.95;4.65;;;;;;;26.76;49.39;98257.69;6190408;23;20020;-88
2022/09/06 10:48:34;;;;;;;;;;;;;;;26.70;48.84;98261.59;6239331;23;20509;-91
2022/09/06 10:51:49;;;;;;;4.28;3.97;;;;;;;26.68;49.25;98256.50;6207367;23;20088;-87
2022/09/06 10:54:23;;;;;;;4.65;4.25;;;;;;;26.86;49.51;98249.41;6229798;23;20074;-87
2022/09/06 10:57:20;;;;;;;3.90;3.70;;;;;;;27.02;47.83;98241.00;6211236;23;20028;-86
2022/09/06 11:00:12;;;;;;;4.85;4.45;;;;;;;27.05;47.47;98245.75;6191043;23;20027;-86
2022/09/06 11:02:54;;;;;;;4.72;4.15;;;;;;;27.21;46.65;98234.38;6238735;23;20070;-88
2022/09/06 11:06:05;;;;;;;3.47;3.28;;;;;;;27.62;44.67;98240.69;6239129;23;20016;-87
2022/09/06 11:08:45;;;;;;;3.85;3.55;;;;;;;27.71;45.04;98241.59;6215030;23;20047;-88
2022/09/06 11:11:35;;;;;;;3.67;3.38;;;;;;;27.80;43.57;98239.72;6240336;23;20035;-91
2022/09/06 11:14:11;;;;;;;3.85;3.50;;;;;;;27.87;42.77;98239.28;6240704;23;20016;-87
2022/09/06 11:16:56;;;;;;;4.47;4.00;;;;;;;27.98;43.31;98227.94;6217104;23;20016;-91
2022/09/06 11:19:37;;;;;;;3.85;3.53;;;;;;;28.19;43.32;98238.19;6241958;23;20429;-86
2022/09/06 11:22:33;;;;;;;3.70;3.40;;;;;;;28.50;42.56;98230.06;6241221;23;20333;-85
2022/09/06 11:25:33;;;;;;;3.35;3.10;;;;;;;28.58;42.66;98225.78;6239169;22;20071;-88
2022/09/06 11:28:09;;;;;;;3.00;2.80;;;;;;;28.85;41.77;98219.31;6242813;23;20504;-85
2022/09/06 11:30:41;;;;;;;3.08;2.88;;;;;;;28.82;40.60;98214.56;6218035;23;20016;-88
2022/09/06 11:33:23;;;;;;;3.50;3.20;;;;;;;28.72;41.69;98224.53;6217886;23;20020;-86
2022/09/06 11:35:55;;;;;;;3.10;2.80;;;;;;;28.90;39.68;98217.25;6245427;23;20016;-89
2022/09/06 11:38:41;;;;;;;3.33;3.03;;;;;;;28.90;40.21;98217.25;6244940;23;20035;-88
2022/09/06 11:41:38;;;;;;;3.28;3.00;;;;;;;28.80;40.93;98215.66;6242145;23;20109;-85
2022/09/06 11:45:11;;;;;;;3.05;2.80;;;;;;;29.02;39.68;98209.34;6217510;23;20020;-89
2022/09/06 11:47:41;;;;;;;2.55;2.38;;;;;;;29.06;39.75;98199.50;6241190;23;20445;-90
2022/09/06 11:50:52;;;;;;;2.97;2.78;;;;;;;29.03;39.34;98192.06;6215378;23;20353;-86
2022/09/06 11:53:22;;;;;;;2.83;2.60;;;;;;;29.08;39.74;98203.78;6233223;23;20024;-86
2022/09/06 11:55:58;;;;;;;2.53;2.33;;;;;;;29.20;39.04;98199.34;6241787;23;20016;-87
2022/09/06 11:58:52;;;;;;;3.70;3.20;;;;;;;28.77;39.80;98202.00;6214655;23;20016;-85
2022/09/06 12:01:19;;;;;;;2.78;2.40;;;;;;;28.75;40.48;98204.22;6189366;23;20012;-86
2022/09/06 12:03:52;;;;;;;3.42;3.10;;;;;;;28.79;40.14;98197.09;6214442;23;20496;-86
2022/09/06 12:07:02;;;;;;;3.17;2.87;;;;;;;28.58;39.69;98201.50;6194443;23;20020;-90
2022/09/06 12:09:38;;;;;;;3.55;2.75;;;;;;;28.50;39.34;98206.56;6242772;23;20023;-86
2022/09/06 12:12:05;;;;;;;3.20;2.90;;;;;;;28.55;39.23;98205.63;6241836;23;20035;-86